sensor_id;sensor_type;location;lat;lon;timestamp;P1;durP1;ratioP1;P2;durP2;ratioP2
40515;SDS011;26216;53.724;9.898;2023-08-01T00:01:54;0.40;;;0.38;;
40515;SDS011;26216;53.724;9.898;2023-08-01T00:04:27;0.52;;;0.52;;
40515;SDS011;26216;53.724;9.898;2023-08-01T00:06:59;0.52;;;0.45;;
40515;SDS011;26216;53.724;9.898;2023-08-01T00:09:28;0.38;;;0.38;;
40515;SDS011;26216;53.724;9.898;2023-08-01T00:11:57;0.52;;;0.50;;
40515;SDS011;26216;53.724;9.898;2023-08-01T00:14:29;1.15;;;0.57;;
40515;SDS011;26216;53.724;9.898;2023-08-01T00:16:57;0.47;;;0.47;;
40515;SDS011;26216;53.724;9.898;2023-08-01T00:19:27;0.70;;;0.52;;
40515;SDS011;26216;53.724;9.898;2023-08-01T00:21:54;0.50;;;0.50;;
40515;SDS011;26216;53.724;9.898;2023-08-01T00:24:20;0.70;;;0.65;;
40515;SDS011;26216;53.724;9.898;2023-08-01T00:26:48;0.85;;;0.63;;
40515;SDS011;26216;53.724;9.898;2023-08-01T00:29:15;1.02;;;0.73;;
40515;SDS011;26216;53.724;9.898;2023-08-01T00:31:41;0.75;;;0.60;;
40515;SDS011;26216;53.724;9.898;2023-08-01T00:34:07;0.82;;;0.60;;
40515;SDS011;26216;53.724;9.898;2023-08-01T00:36:34;0.75;;;0.68;;
40515;SDS011;26216;53.724;9.898;2023-08-01T00:39:04;1.10;;;0.88;;
40515;SDS011;26216;53.724;9.898;2023-08-01T00:41:30;1.23;;;0.60;;
40515;SDS011;26216;53.724;9.898;2023-08-01T00:43:56;0.77;;;0.70;;
40515;SDS011;26216;53.724;9.898;2023-08-01T00:46:23;0.85;;;0.70;;
40515;SDS011;26216;53.724;9.898;2023-08-01T00:48:50;0.85;;;0.80;;
40515;SDS011;26216;53.724;9.898;2023-08-01T00:51:16;0.65;;;0.65;;
40515;SDS011;26216;53.724;9.898;2023-08-01T00:53:46;0.63;;;0.60;;
40515;SDS011;26216;53.724;9.898;2023-08-01T00:56:17;0.93;;;0.80;;
40515;SDS011;26216;53.724;9.898;2023-08-01T00:58:49;0.50;;;0.50;;
40515;SDS011;26216;53.724;9.898;2023-08-01T01:01:19;0.80;;;0.70;;
40515;SDS011;26216;53.724;9.898;2023-08-01T01:03:49;0.85;;;0.60;;
40515;SDS011;26216;53.724;9.898;2023-08-01T01:08:50;0.95;;;0.50;;
40515;SDS011;26216;53.724;9.898;2023-08-01T01:11:20;1.02;;;0.45;;
40515;SDS011;26216;53.724;9.898;2023-08-01T01:13:48;0.60;;;0.60;;
40515;SDS011;26216;53.724;9.898;2023-08-01T01:16:21;0.50;;;0.50;;
40515;SDS011;26216;53.724;9.898;2023-08-01T01:18:48;0.70;;;0.50;;
40515;SDS011;26216;53.724;9.898;2023-08-01T01:21:16;0.68;;;0.68;;
40515;SDS011;26216;53.724;9.898;2023-08-01T01:23:46;0.60;;;0.60;;
40515;SDS011;26216;53.724;9.898;2023-08-01T01:26:17;5.47;;;0.80;;
40515;SDS011;26216;53.724;9.898;2023-08-01T01:28:48;0.93;;;0.70;;
40515;SDS011;26216;53.724;9.898;2023-08-01T01:31:16;1.23;;;0.70;;
40515;SDS011;26216;53.724;9.898;2023-08-01T01:33:43;0.88;;;0.60;;
40515;SDS011;26216;53.724;9.898;2023-08-01T01:36:08;0.77;;;0.65;;
40515;SDS011;26216;53.724;9.898;2023-08-01T01:38:34;2.03;;;0.80;;
40515;SDS011;26216;53.724;9.898;2023-08-01T01:41:00;0.98;;;0.70;;
40515;SDS011;26216;53.724;9.898;2023-08-01T01:43:26;0.98;;;0.80;;
40515;SDS011;26216;53.724;9.898;2023-08-01T01:45:52;0.90;;;0.70;;
40515;SDS011;26216;53.724;9.898;2023-08-01T01:48:17;1.40;;;0.82;;
40515;SDS011;26216;53.724;9.898;2023-08-01T01:50:43;1.08;;;0.80;;
40515;SDS011;26216;53.724;9.898;2023-08-01T01:53:09;1.10;;;0.93;;
40515;SDS011;26216;53.724;9.898;2023-08-01T01:55:35;0.80;;;0.70;;
40515;SDS011;26216;53.724;9.898;2023-08-01T01:58:00;1.60;;;0.90;;
40515;SDS011;26216;53.724;9.898;2023-08-01T02:00:26;1.40;;;0.93;;
40515;SDS011;26216;53.724;9.898;2023-08-01T02:02:52;1.20;;;1.02;;
40515;SDS011;26216;53.724;9.898;2023-08-01T02:05:18;1.00;;;0.90;;
40515;SDS011;26216;53.724;9.898;2023-08-01T02:07:43;1.52;;;1.00;;
40515;SDS011;26216;53.724;9.898;2023-08-01T02:10:09;1.20;;;1.10;;
40515;SDS011;26216;53.724;9.898;2023-08-01T02:12:35;1.05;;;0.90;;
40515;SDS011;26216;53.724;9.898;2023-08-01T02:15:01;2.05;;;1.20;;
40515;SDS011;26216;53.724;9.898;2023-08-01T02:17:27;2.00;;;1.33;;
40515;SDS011;26216;53.724;9.898;2023-08-01T02:19:53;1.70;;;1.40;;
40515;SDS011;26216;53.724;9.898;2023-08-01T02:22:22;1.90;;;1.50;;
40515;SDS011;26216;53.724;9.898;2023-08-01T02:24:49;2.03;;;1.50;;
40515;SDS011;26216;53.724;9.898;2023-08-01T02:27:15;2.22;;;1.65;;
40515;SDS011;26216;53.724;9.898;2023-08-01T02:29:41;1.90;;;1.60;;
40515;SDS011;26216;53.724;9.898;2023-08-01T02:32:07;2.00;;;1.80;;
40515;SDS011;26216;53.724;9.898;2023-08-01T02:34:33;2.83;;;2.13;;
40515;SDS011;26216;53.724;9.898;2023-08-01T02:37:01;2.80;;;2.22;;
40515;SDS011;26216;53.724;9.898;2023-08-01T02:39:27;3.10;;;2.30;;
40515;SDS011;26216;53.724;9.898;2023-08-01T02:41:53;2.60;;;1.95;;
40515;SDS011;26216;53.724;9.898;2023-08-01T02:44:19;2.95;;;2.30;;
40515;SDS011;26216;53.724;9.898;2023-08-01T02:46:45;2.60;;;2.35;;
40515;SDS011;26216;53.724;9.898;2023-08-01T02:49:10;3.28;;;2.58;;
40515;SDS011;26216;53.724;9.898;2023-08-01T02:51:36;2.95;;;2.50;;
40515;SDS011;26216;53.724;9.898;2023-08-01T02:54:03;2.88;;;2.40;;
40515;SDS011;26216;53.724;9.898;2023-08-01T02:56:29;3.25;;;2.95;;
40515;SDS011;26216;53.724;9.898;2023-08-01T02:58:55;3.35;;;3.03;;
40515;SDS011;26216;53.724;9.898;2023-08-01T03:01:22;3.10;;;2.80;;
40515;SDS011;26216;53.724;9.898;2023-08-01T03:03:48;3.55;;;3.00;;
40515;SDS011;26216;53.724;9.898;2023-08-01T03:06:14;3.17;;;2.83;;
40515;SDS011;26216;53.724;9.898;2023-08-01T03:08:40;3.17;;;2.88;;
40515;SDS011;26216;53.724;9.898;2023-08-01T03:11:06;4.18;;;3.45;;
40515;SDS011;26216;53.724;9.898;2023-08-01T03:13:32;3.50;;;3.20;;
40515;SDS011;26216;53.724;9.898;2023-08-01T03:15:58;4.13;;;3.72;;
40515;SDS011;26216;53.724;9.898;2023-08-01T03:18:24;4.82;;;4.07;;
40515;SDS011;26216;53.724;9.898;2023-08-01T03:20:49;4.35;;;3.80;;
40515;SDS011;26216;53.724;9.898;2023-08-01T03:23:15;3.83;;;3.42;;
40515;SDS011;26216;53.724;9.898;2023-08-01T03:25:41;4.13;;;3.72;;
40515;SDS011;26216;53.724;9.898;2023-08-01T03:28:07;5.22;;;4.72;;
40515;SDS011;26216;53.724;9.898;2023-08-01T03:30:34;4.20;;;3.80;;
40515;SDS011;26216;53.724;9.898;2023-08-01T03:33:03;4.70;;;4.20;;
40515;SDS011;26216;53.724;9.898;2023-08-01T03:35:29;5.07;;;3.88;;
40515;SDS011;26216;53.724;9.898;2023-08-01T03:37:55;4.05;;;3.60;;
40515;SDS011;26216;53.724;9.898;2023-08-01T03:40:20;3.95;;;3.50;;
40515;SDS011;26216;53.724;9.898;2023-08-01T03:42:46;4.90;;;3.85;;
40515;SDS011;26216;53.724;9.898;2023-08-01T03:45:12;4.90;;;4.25;;
40515;SDS011;26216;53.724;9.898;2023-08-01T03:47:38;4.05;;;3.65;;
40515;SDS011;26216;53.724;9.898;2023-08-01T03:50:03;3.90;;;3.55;;
40515;SDS011;26216;53.724;9.898;2023-08-01T03:52:30;4.95;;;3.90;;
40515;SDS011;26216;53.724;9.898;2023-08-01T03:54:55;4.95;;;3.90;;
40515;SDS011;26216;53.724;9.898;2023-08-01T03:57:21;4.13;;;3.72;;
40515;SDS011;26216;53.724;9.898;2023-08-01T03:59:47;4.55;;;3.83;;
40515;SDS011;26216;53.724;9.898;2023-08-01T04:02:13;5.68;;;4.22;;
40515;SDS011;26216;53.724;9.898;2023-08-01T04:04:39;4.28;;;3.58;;
40515;SDS011;26216;53.724;9.898;2023-08-01T04:07:05;4.93;;;4.43;;
40515;SDS011;26216;53.724;9.898;2023-08-01T04:09:30;5.45;;;4.35;;
40515;SDS011;26216;53.724;9.898;2023-08-01T04:11:56;4.25;;;3.70;;
40515;SDS011;26216;53.724;9.898;2023-08-01T04:14:22;5.25;;;3.55;;
40515;SDS011;26216;53.724;9.898;2023-08-01T04:16:48;4.43;;;3.55;;
40515;SDS011;26216;53.724;9.898;2023-08-01T04:19:14;5.72;;;4.20;;
40515;SDS011;26216;53.724;9.898;2023-08-01T04:21:40;3.85;;;3.45;;
40515;SDS011;26216;53.724;9.898;2023-08-01T04:24:06;4.60;;;4.20;;
40515;SDS011;26216;53.724;9.898;2023-08-01T04:26:31;6.07;;;4.32;;
40515;SDS011;26216;53.724;9.898;2023-08-01T04:28:57;4.20;;;3.85;;
40515;SDS011;26216;53.724;9.898;2023-08-01T04:31:23;5.25;;;4.50;;
40515;SDS011;26216;53.724;9.898;2023-08-01T04:33:49;4.50;;;4.10;;
40515;SDS011;26216;53.724;9.898;2023-08-01T04:36:14;4.78;;;3.85;;
40515;SDS011;26216;53.724;9.898;2023-08-01T04:38:40;5.28;;;4.70;;
40515;SDS011;26216;53.724;9.898;2023-08-01T04:41:06;4.82;;;4.32;;
40515;SDS011;26216;53.724;9.898;2023-08-01T04:43:33;5.28;;;4.78;;
40515;SDS011;26216;53.724;9.898;2023-08-01T04:45:58;4.68;;;4.28;;
40515;SDS011;26216;53.724;9.898;2023-08-01T04:48:24;3.83;;;3.40;;
40515;SDS011;26216;53.724;9.898;2023-08-01T04:50:50;5.95;;;4.78;;
40515;SDS011;26216;53.724;9.898;2023-08-01T04:53:16;5.45;;;4.78;;
40515;SDS011;26216;53.724;9.898;2023-08-01T04:55:42;6.55;;;4.57;;
40515;SDS011;26216;53.724;9.898;2023-08-01T04:58:10;4.38;;;3.97;;
40515;SDS011;26216;53.724;9.898;2023-08-01T05:00:37;4.13;;;3.72;;
40515;SDS011;26216;53.724;9.898;2023-08-01T05:03:03;4.85;;;4.07;;
40515;SDS011;26216;53.724;9.898;2023-08-01T05:05:29;4.43;;;4.03;;
40515;SDS011;26216;53.724;9.898;2023-08-01T05:07:54;4.50;;;3.88;;
40515;SDS011;26216;53.724;9.898;2023-08-01T05:10:20;4.07;;;3.67;;
40515;SDS011;26216;53.724;9.898;2023-08-01T05:12:46;3.55;;;3.25;;
40515;SDS011;26216;53.724;9.898;2023-08-01T05:15:12;3.60;;;3.30;;
40515;SDS011;26216;53.724;9.898;2023-08-01T05:17:38;5.18;;;4.30;;
40515;SDS011;26216;53.724;9.898;2023-08-01T05:20:04;4.05;;;3.40;;
40515;SDS011;26216;53.724;9.898;2023-08-01T05:22:30;5.90;;;3.53;;
40515;SDS011;26216;53.724;9.898;2023-08-01T05:24:56;5.45;;;4.07;;
40515;SDS011;26216;53.724;9.898;2023-08-01T05:27:22;4.05;;;3.65;;
40515;SDS011;26216;53.724;9.898;2023-08-01T05:29:48;4.40;;;3.78;;
40515;SDS011;26216;53.724;9.898;2023-08-01T05:32:14;4.38;;;3.38;;
40515;SDS011;26216;53.724;9.898;2023-08-01T05:34:39;5.13;;;4.05;;
40515;SDS011;26216;53.724;9.898;2023-08-01T05:37:05;3.90;;;3.50;;
40515;SDS011;26216;53.724;9.898;2023-08-01T05:39:31;4.05;;;3.45;;
40515;SDS011;26216;53.724;9.898;2023-08-01T05:41:57;5.10;;;3.60;;
40515;SDS011;26216;53.724;9.898;2023-08-01T05:44:22;4.38;;;3.55;;
40515;SDS011;26216;53.724;9.898;2023-08-01T05:46:48;3.55;;;3.00;;
40515;SDS011;26216;53.724;9.898;2023-08-01T05:49:14;3.60;;;2.67;;
40515;SDS011;26216;53.724;9.898;2023-08-01T05:51:40;4.82;;;3.28;;
40515;SDS011;26216;53.724;9.898;2023-08-01T05:54:05;5.70;;;3.88;;
40515;SDS011;26216;53.724;9.898;2023-08-01T05:56:31;5.32;;;3.22;;
40515;SDS011;26216;53.724;9.898;2023-08-01T05:58:57;4.20;;;3.30;;
40515;SDS011;26216;53.724;9.898;2023-08-01T06:01:22;4.93;;;3.60;;
40515;SDS011;26216;53.724;9.898;2023-08-01T06:03:49;3.63;;;2.83;;
40515;SDS011;26216;53.724;9.898;2023-08-01T06:06:15;4.03;;;2.40;;
40515;SDS011;26216;53.724;9.898;2023-08-01T06:08:41;3.35;;;2.22;;
40515;SDS011;26216;53.724;9.898;2023-08-01T06:11:06;4.20;;;2.20;;
40515;SDS011;26216;53.724;9.898;2023-08-01T06:13:32;4.63;;;2.50;;
40515;SDS011;26216;53.724;9.898;2023-08-01T06:15:58;3.95;;;2.10;;
40515;SDS011;26216;53.724;9.898;2023-08-01T06:18:24;4.65;;;2.72;;
40515;SDS011;26216;53.724;9.898;2023-08-01T06:20:50;5.63;;;3.47;;
40515;SDS011;26216;53.724;9.898;2023-08-01T06:23:15;5.28;;;2.63;;
40515;SDS011;26216;53.724;9.898;2023-08-01T06:25:41;3.75;;;2.75;;
40515;SDS011;26216;53.724;9.898;2023-08-01T06:28:07;4.80;;;2.70;;
40515;SDS011;26216;53.724;9.898;2023-08-01T06:30:33;5.20;;;2.90;;
40515;SDS011;26216;53.724;9.898;2023-08-01T06:32:59;4.78;;;2.40;;
40515;SDS011;26216;53.724;9.898;2023-08-01T06:35:24;3.60;;;2.30;;
40515;SDS011;26216;53.724;9.898;2023-08-01T06:37:50;5.63;;;2.83;;
40515;SDS011;26216;53.724;9.898;2023-08-01T06:40:16;4.00;;;2.53;;
40515;SDS011;26216;53.724;9.898;2023-08-01T06:42:42;3.53;;;2.20;;
40515;SDS011;26216;53.724;9.898;2023-08-01T06:45:08;3.80;;;2.50;;
40515;SDS011;26216;53.724;9.898;2023-08-01T06:47:34;5.05;;;2.30;;
40515;SDS011;26216;53.724;9.898;2023-08-01T06:50:02;3.58;;;2.40;;
40515;SDS011;26216;53.724;9.898;2023-08-01T06:52:30;8.82;;;2.35;;
40515;SDS011;26216;53.724;9.898;2023-08-01T06:54:55;3.28;;;1.92;;
40515;SDS011;26216;53.724;9.898;2023-08-01T06:57:21;5.47;;;2.63;;
40515;SDS011;26216;53.724;9.898;2023-08-01T06:59:47;4.20;;;2.33;;
40515;SDS011;26216;53.724;9.898;2023-08-01T07:02:12;3.40;;;2.10;;
40515;SDS011;26216;53.724;9.898;2023-08-01T07:04:38;3.63;;;2.08;;
40515;SDS011;26216;53.724;9.898;2023-08-01T07:07:04;3.63;;;2.03;;
40515;SDS011;26216;53.724;9.898;2023-08-01T07:09:30;5.30;;;2.20;;
40515;SDS011;26216;53.724;9.898;2023-08-01T07:11:56;3.65;;;2.10;;
40515;SDS011;26216;53.724;9.898;2023-08-01T07:14:21;3.85;;;2.35;;
40515;SDS011;26216;53.724;9.898;2023-08-01T07:16:47;3.70;;;2.35;;
40515;SDS011;26216;53.724;9.898;2023-08-01T07:19:13;3.97;;;2.00;;
40515;SDS011;26216;53.724;9.898;2023-08-01T07:21:39;3.78;;;2.45;;
40515;SDS011;26216;53.724;9.898;2023-08-01T07:24:05;4.10;;;2.40;;
40515;SDS011;26216;53.724;9.898;2023-08-01T07:26:31;4.72;;;2.30;;
40515;SDS011;26216;53.724;9.898;2023-08-01T07:28:57;3.42;;;2.00;;
40515;SDS011;26216;53.724;9.898;2023-08-01T07:31:23;3.33;;;2.00;;
40515;SDS011;26216;53.724;9.898;2023-08-01T07:33:48;4.13;;;2.33;;
40515;SDS011;26216;53.724;9.898;2023-08-01T07:36:14;3.90;;;2.05;;
40515;SDS011;26216;53.724;9.898;2023-08-01T07:38:40;4.97;;;2.20;;
40515;SDS011;26216;53.724;9.898;2023-08-01T07:41:06;4.10;;;1.83;;
40515;SDS011;26216;53.724;9.898;2023-08-01T07:43:32;3.00;;;1.90;;
40515;SDS011;26216;53.724;9.898;2023-08-01T07:45:58;3.80;;;2.03;;
40515;SDS011;26216;53.724;9.898;2023-08-01T07:48:25;3.50;;;2.05;;
40515;SDS011;26216;53.724;9.898;2023-08-01T07:50:51;2.78;;;1.83;;
40515;SDS011;26216;53.724;9.898;2023-08-01T07:53:17;3.75;;;1.90;;
40515;SDS011;26216;53.724;9.898;2023-08-01T07:55:43;4.88;;;2.72;;
40515;SDS011;26216;53.724;9.898;2023-08-01T07:58:08;4.00;;;2.60;;
40515;SDS011;26216;53.724;9.898;2023-08-01T08:00:34;6.00;;;2.83;;
40515;SDS011;26216;53.724;9.898;2023-08-01T08:03:00;4.20;;;2.10;;
40515;SDS011;26216;53.724;9.898;2023-08-01T08:05:29;6.53;;;3.00;;
40515;SDS011;26216;53.724;9.898;2023-08-01T08:07:54;5.45;;;2.28;;
40515;SDS011;26216;53.724;9.898;2023-08-01T08:10:20;4.90;;;2.35;;
40515;SDS011;26216;53.724;9.898;2023-08-01T08:12:46;7.28;;;2.95;;
40515;SDS011;26216;53.724;9.898;2023-08-01T08:15:12;4.05;;;2.33;;
40515;SDS011;26216;53.724;9.898;2023-08-01T08:17:38;3.13;;;2.03;;
40515;SDS011;26216;53.724;9.898;2023-08-01T08:20:04;5.00;;;2.60;;
40515;SDS011;26216;53.724;9.898;2023-08-01T08:22:31;5.03;;;2.60;;
40515;SDS011;26216;53.724;9.898;2023-08-01T08:24:57;3.67;;;2.30;;
40515;SDS011;26216;53.724;9.898;2023-08-01T08:27:23;3.97;;;2.83;;
40515;SDS011;26216;53.724;9.898;2023-08-01T08:29:49;4.97;;;2.40;;
40515;SDS011;26216;53.724;9.898;2023-08-01T08:32:15;3.70;;;2.50;;
40515;SDS011;26216;53.724;9.898;2023-08-01T08:34:41;2.65;;;2.00;;
40515;SDS011;26216;53.724;9.898;2023-08-01T08:37:07;3.58;;;1.90;;
40515;SDS011;26216;53.724;9.898;2023-08-01T08:39:33;3.80;;;1.83;;
40515;SDS011;26216;53.724;9.898;2023-08-01T08:41:59;5.07;;;2.35;;
40515;SDS011;26216;53.724;9.898;2023-08-01T08:44:25;4.18;;;1.92;;
40515;SDS011;26216;53.724;9.898;2023-08-01T08:46:54;3.47;;;2.20;;
40515;SDS011;26216;53.724;9.898;2023-08-01T08:49:25;3.33;;;2.00;;
40515;SDS011;26216;53.724;9.898;2023-08-01T08:51:52;3.47;;;2.03;;
40515;SDS011;26216;53.724;9.898;2023-08-01T08:54:19;3.38;;;2.00;;
40515;SDS011;26216;53.724;9.898;2023-08-01T08:56:45;5.05;;;2.08;;
40515;SDS011;26216;53.724;9.898;2023-08-01T08:59:11;3.85;;;1.90;;
40515;SDS011;26216;53.724;9.898;2023-08-01T09:01:38;3.28;;;2.00;;
40515;SDS011;26216;53.724;9.898;2023-08-01T09:04:05;3.30;;;1.63;;
40515;SDS011;26216;53.724;9.898;2023-08-01T09:06:32;4.65;;;2.22;;
40515;SDS011;26216;53.724;9.898;2023-08-01T09:09:10;3.95;;;1.45;;
40515;SDS011;26216;53.724;9.898;2023-08-01T09:14:10;2.60;;;1.60;;
40515;SDS011;26216;53.724;9.898;2023-08-01T09:16:36;3.55;;;1.73;;
40515;SDS011;26216;53.724;9.898;2023-08-01T09:19:06;1.77;;;1.30;;
40515;SDS011;26216;53.724;9.898;2023-08-01T09:21:35;2.00;;;1.30;;
40515;SDS011;26216;53.724;9.898;2023-08-01T09:24:08;2.25;;;1.48;;
40515;SDS011;26216;53.724;9.898;2023-08-01T09:26:38;2.08;;;1.35;;
40515;SDS011;26216;53.724;9.898;2023-08-01T09:29:05;1.38;;;1.10;;
40515;SDS011;26216;53.724;9.898;2023-08-01T09:31:35;2.17;;;1.30;;
40515;SDS011;26216;53.724;9.898;2023-08-01T09:34:03;2.67;;;1.73;;
40515;SDS011;26216;53.724;9.898;2023-08-01T09:36:33;1.37;;;1.20;;
40515;SDS011;26216;53.724;9.898;2023-08-01T09:39:02;2.33;;;1.30;;
40515;SDS011;26216;53.724;9.898;2023-08-01T09:41:30;1.83;;;1.10;;
40515;SDS011;26216;53.724;9.898;2023-08-01T09:43:56;2.70;;;1.40;;
40515;SDS011;26216;53.724;9.898;2023-08-01T09:46:22;3.20;;;1.30;;
40515;SDS011;26216;53.724;9.898;2023-08-01T09:48:48;2.75;;;1.77;;
40515;SDS011;26216;53.724;9.898;2023-08-01T09:51:15;2.28;;;1.60;;
40515;SDS011;26216;53.724;9.898;2023-08-01T09:53:52;2.45;;;1.55;;
40515;SDS011;26216;53.724;9.898;2023-08-01T09:56:21;3.95;;;1.58;;
40515;SDS011;26216;53.724;9.898;2023-08-01T09:58:47;3.25;;;1.48;;
40515;SDS011;26216;53.724;9.898;2023-08-01T10:01:14;2.50;;;1.60;;
40515;SDS011;26216;53.724;9.898;2023-08-01T10:03:47;2.15;;;1.60;;
40515;SDS011;26216;53.724;9.898;2023-08-01T10:06:17;2.03;;;1.10;;
40515;SDS011;26216;53.724;9.898;2023-08-01T10:08:48;2.78;;;1.35;;
40515;SDS011;26216;53.724;9.898;2023-08-01T10:11:16;2.50;;;1.33;;
40515;SDS011;26216;53.724;9.898;2023-08-01T10:13:43;1.48;;;1.05;;
40515;SDS011;26216;53.724;9.898;2023-08-01T10:16:10;1.92;;;0.95;;
40515;SDS011;26216;53.724;9.898;2023-08-01T10:18:39;3.28;;;1.20;;
40515;SDS011;26216;53.724;9.898;2023-08-01T10:21:05;1.52;;;0.80;;
40515;SDS011;26216;53.724;9.898;2023-08-01T10:23:33;1.52;;;1.00;;
40515;SDS011;26216;53.724;9.898;2023-08-01T10:26:00;1.55;;;1.00;;
40515;SDS011;26216;53.724;9.898;2023-08-01T10:28:35;2.65;;;1.00;;
40515;SDS011;26216;53.724;9.898;2023-08-01T10:31:16;1.88;;;0.98;;
40515;SDS011;26216;53.724;9.898;2023-08-01T10:33:46;2.40;;;1.00;;
40515;SDS011;26216;53.724;9.898;2023-08-01T10:36:16;1.55;;;1.00;;
40515;SDS011;26216;53.724;9.898;2023-08-01T10:38:56;1.48;;;1.00;;
40515;SDS011;26216;53.724;9.898;2023-08-01T10:41:30;1.83;;;0.88;;
40515;SDS011;26216;53.724;9.898;2023-08-01T10:44:09;2.75;;;1.00;;
40515;SDS011;26216;53.724;9.898;2023-08-01T10:49:15;1.25;;;0.70;;
40515;SDS011;26216;53.724;9.898;2023-08-01T10:51:42;1.17;;;0.50;;
40515;SDS011;26216;53.724;9.898;2023-08-01T10:54:18;2.17;;;0.60;;
40515;SDS011;26216;53.724;9.898;2023-08-01T10:56:46;0.82;;;0.50;;
40515;SDS011;26216;53.724;9.898;2023-08-01T10:59:13;0.40;;;0.40;;
40515;SDS011;26216;53.724;9.898;2023-08-01T11:01:47;1.42;;;0.50;;
40515;SDS011;26216;53.724;9.898;2023-08-01T11:04:23;0.68;;;0.40;;
40515;SDS011;26216;53.724;9.898;2023-08-01T11:06:50;1.00;;;0.50;;
40515;SDS011;26216;53.724;9.898;2023-08-01T11:09:18;1.48;;;0.68;;
40515;SDS011;26216;53.724;9.898;2023-08-01T11:11:46;0.65;;;0.50;;
40515;SDS011;26216;53.724;9.898;2023-08-01T11:14:15;1.98;;;0.70;;
40515;SDS011;26216;53.724;9.898;2023-08-01T11:16:42;0.93;;;0.50;;
40515;SDS011;26216;53.724;9.898;2023-08-01T11:19:25;0.55;;;0.40;;
40515;SDS011;26216;53.724;9.898;2023-08-01T11:21:53;2.75;;;0.50;;
40515;SDS011;26216;53.724;9.898;2023-08-01T11:24:21;0.70;;;0.38;;
40515;SDS011;26216;53.724;9.898;2023-08-01T11:26:48;0.60;;;0.50;;
40515;SDS011;26216;53.724;9.898;2023-08-01T11:29:15;0.52;;;0.30;;
40515;SDS011;26216;53.724;9.898;2023-08-01T11:34:41;1.85;;;0.22;;
40515;SDS011;26216;53.724;9.898;2023-08-01T11:37:11;1.25;;;0.40;;
40515;SDS011;26216;53.724;9.898;2023-08-01T11:39:43;0.52;;;0.25;;
40515;SDS011;26216;53.724;9.898;2023-08-01T11:42:14;0.20;;;0.20;;
40515;SDS011;26216;53.724;9.898;2023-08-01T11:44:42;0.40;;;0.25;;
40515;SDS011;26216;53.724;9.898;2023-08-01T11:47:12;0.40;;;0.28;;
40515;SDS011;26216;53.724;9.898;2023-08-01T11:49:39;0.28;;;0.28;;
40515;SDS011;26216;53.724;9.898;2023-08-01T11:52:10;0.38;;;0.25;;
40515;SDS011;26216;53.724;9.898;2023-08-01T11:54:45;0.25;;;0.22;;
40515;SDS011;26216;53.724;9.898;2023-08-01T11:57:11;0.40;;;0.30;;
40515;SDS011;26216;53.724;9.898;2023-08-01T11:59:45;0.57;;;0.30;;
40515;SDS011;26216;53.724;9.898;2023-08-01T12:02:20;0.45;;;0.30;;
40515;SDS011;26216;53.724;9.898;2023-08-01T12:04:49;0.52;;;0.30;;
40515;SDS011;26216;53.724;9.898;2023-08-01T12:07:15;0.20;;;0.20;;
40515;SDS011;26216;53.724;9.898;2023-08-01T12:09:42;0.70;;;0.43;;
40515;SDS011;26216;53.724;9.898;2023-08-01T12:12:08;1.10;;;0.45;;
40515;SDS011;26216;53.724;9.898;2023-08-01T12:14:39;0.60;;;0.30;;
40515;SDS011;26216;53.724;9.898;2023-08-01T12:17:06;0.65;;;0.40;;
40515;SDS011;26216;53.724;9.898;2023-08-01T12:19:31;0.95;;;0.40;;
40515;SDS011;26216;53.724;9.898;2023-08-01T12:21:59;0.60;;;0.50;;
40515;SDS011;26216;53.724;9.898;2023-08-01T12:24:25;0.63;;;0.40;;
40515;SDS011;26216;53.724;9.898;2023-08-01T12:26:51;0.93;;;0.50;;
40515;SDS011;26216;53.724;9.898;2023-08-01T12:29:17;0.30;;;0.30;;
40515;SDS011;26216;53.724;9.898;2023-08-01T12:31:42;0.63;;;0.40;;
40515;SDS011;26216;53.724;9.898;2023-08-01T12:34:09;0.65;;;0.50;;
40515;SDS011;26216;53.724;9.898;2023-08-01T12:36:34;1.10;;;0.50;;
40515;SDS011;26216;53.724;9.898;2023-08-01T12:39:13;0.70;;;0.50;;
40515;SDS011;26216;53.724;9.898;2023-08-01T12:41:39;0.32;;;0.30;;
40515;SDS011;26216;53.724;9.898;2023-08-01T12:44:05;1.70;;;0.60;;
40515;SDS011;26216;53.724;9.898;2023-08-01T12:46:31;1.15;;;0.50;;
40515;SDS011;26216;53.724;9.898;2023-08-01T12:48:56;0.35;;;0.35;;
40515;SDS011;26216;53.724;9.898;2023-08-01T12:51:22;1.00;;;0.57;;
40515;SDS011;26216;53.724;9.898;2023-08-01T12:53:48;1.73;;;0.50;;
40515;SDS011;26216;53.724;9.898;2023-08-01T12:56:14;1.25;;;0.50;;
40515;SDS011;26216;53.724;9.898;2023-08-01T12:58:40;0.60;;;0.38;;
40515;SDS011;26216;53.724;9.898;2023-08-01T13:01:06;1.60;;;0.70;;
40515;SDS011;26216;53.724;9.898;2023-08-01T13:03:32;0.55;;;0.40;;
40515;SDS011;26216;53.724;9.898;2023-08-01T13:05:58;0.52;;;0.30;;
40515;SDS011;26216;53.724;9.898;2023-08-01T13:08:24;1.02;;;0.30;;
40515;SDS011;26216;53.724;9.898;2023-08-01T13:10:50;0.50;;;0.40;;
40515;SDS011;26216;53.724;9.898;2023-08-01T13:13:17;0.30;;;0.30;;
40515;SDS011;26216;53.724;9.898;2023-08-01T13:15:43;0.32;;;0.20;;
40515;SDS011;26216;53.724;9.898;2023-08-01T13:18:09;0.30;;;0.20;;
40515;SDS011;26216;53.724;9.898;2023-08-01T13:20:35;0.55;;;0.20;;
40515;SDS011;26216;53.724;9.898;2023-08-01T13:23:02;0.20;;;0.10;;
40515;SDS011;26216;53.724;9.898;2023-08-01T13:25:28;0.10;;;0.10;;
40515;SDS011;26216;53.724;9.898;2023-08-01T13:27:54;0.22;;;0.17;;
40515;SDS011;26216;53.724;9.898;2023-08-01T13:30:20;0.75;;;0.40;;
40515;SDS011;26216;53.724;9.898;2023-08-01T13:32:46;0.20;;;0.20;;
40515;SDS011;26216;53.724;9.898;2023-08-01T13:35:13;0.32;;;0.20;;
40515;SDS011;26216;53.724;9.898;2023-08-01T13:37:39;0.50;;;0.20;;
40515;SDS011;26216;53.724;9.898;2023-08-01T13:40:05;1.40;;;0.25;;
40515;SDS011;26216;53.724;9.898;2023-08-01T13:42:32;0.70;;;0.50;;
40515;SDS011;26216;53.724;9.898;2023-08-01T13:44:59;0.68;;;0.30;;
40515;SDS011;26216;53.724;9.898;2023-08-01T13:47:25;0.63;;;0.43;;
40515;SDS011;26216;53.724;9.898;2023-08-01T13:49:51;0.38;;;0.20;;
40515;SDS011;26216;53.724;9.898;2023-08-01T13:52:17;0.88;;;0.30;;
40515;SDS011;26216;53.724;9.898;2023-08-01T13:54:42;0.55;;;0.25;;
40515;SDS011;26216;53.724;9.898;2023-08-01T13:57:08;1.00;;;0.30;;
40515;SDS011;26216;53.724;9.898;2023-08-01T13:59:34;1.10;;;0.32;;
40515;SDS011;26216;53.724;9.898;2023-08-01T14:02:01;1.17;;;0.30;;
40515;SDS011;26216;53.724;9.898;2023-08-01T14:04:28;0.30;;;0.30;;
40515;SDS011;26216;53.724;9.898;2023-08-01T14:06:54;0.60;;;0.40;;
40515;SDS011;26216;53.724;9.898;2023-08-01T14:09:20;1.00;;;0.40;;
40515;SDS011;26216;53.724;9.898;2023-08-01T14:11:46;0.80;;;0.30;;
40515;SDS011;26216;53.724;9.898;2023-08-01T14:14:12;1.55;;;0.55;;
40515;SDS011;26216;53.724;9.898;2023-08-01T14:16:38;0.70;;;0.40;;
40515;SDS011;26216;53.724;9.898;2023-08-01T14:19:03;0.68;;;0.32;;
40515;SDS011;26216;53.724;9.898;2023-08-01T14:21:29;1.02;;;0.40;;
40515;SDS011;26216;53.724;9.898;2023-08-01T14:23:55;1.40;;;0.40;;
40515;SDS011;26216;53.724;9.898;2023-08-01T14:26:21;0.47;;;0.30;;
40515;SDS011;26216;53.724;9.898;2023-08-01T14:28:47;0.63;;;0.40;;
40515;SDS011;26216;53.724;9.898;2023-08-01T14:31:13;0.68;;;0.30;;
40515;SDS011;26216;53.724;9.898;2023-08-01T14:33:39;0.70;;;0.30;;
40515;SDS011;26216;53.724;9.898;2023-08-01T14:36:07;0.40;;;0.30;;
40515;SDS011;26216;53.724;9.898;2023-08-01T14:38:38;0.25;;;0.25;;
40515;SDS011;26216;53.724;9.898;2023-08-01T14:41:04;0.50;;;0.30;;
40515;SDS011;26216;53.724;9.898;2023-08-01T14:43:30;0.30;;;0.20;;
40515;SDS011;26216;53.724;9.898;2023-08-01T14:45:56;0.68;;;0.40;;
40515;SDS011;26216;53.724;9.898;2023-08-01T14:48:22;0.25;;;0.20;;
40515;SDS011;26216;53.724;9.898;2023-08-01T14:50:48;1.23;;;0.50;;
40515;SDS011;26216;53.724;9.898;2023-08-01T14:53:14;0.43;;;0.30;;
40515;SDS011;26216;53.724;9.898;2023-08-01T14:55:40;0.45;;;0.20;;
40515;SDS011;26216;53.724;9.898;2023-08-01T14:58:06;1.20;;;0.30;;